sensor_id;sensor_type;location;lat;lon;timestamp;P1;durP1;ratioP1;P2;durP2;ratioP2
6255;SDS011;3161;48.794;9.784;2022-09-25T00:01:08;43.03;;;3.30;;
6255;SDS011;3161;48.794;9.784;2022-09-25T00:03:36;5.23;;;2.97;;
6255;SDS011;3161;48.794;9.784;2022-09-25T00:06:06;6.63;;;3.13;;
6255;SDS011;3161;48.794;9.784;2022-09-25T00:08:36;8.10;;;3.60;;
6255;SDS011;3161;48.794;9.784;2022-09-25T00:11:16;5.07;;;4.40;;
6255;SDS011;3161;48.794;9.784;2022-09-25T00:13:41;15.37;;;4.03;;
6255;SDS011;3161;48.794;9.784;2022-09-25T00:16:12;4.40;;;3.87;;
6255;SDS011;3161;48.794;9.784;2022-09-25T00:18:41;20.07;;;4.00;;
6255;SDS011;3161;48.794;9.784;2022-09-25T00:21:27;19.60;;;4.10;;
6255;SDS011;3161;48.794;9.784;2022-09-25T00:23:56;4.50;;;4.17;;
6255;SDS011;3161;48.794;9.784;2022-09-25T00:26:28;4.80;;;4.37;;
6255;SDS011;3161;48.794;9.784;2022-09-25T00:28:57;5.07;;;4.57;;
6255;SDS011;3161;48.794;9.784;2022-09-25T00:31:26;4.97;;;4.57;;
6255;SDS011;3161;48.794;9.784;2022-09-25T00:34:04;33.60;;;5.43;;
6255;SDS011;3161;48.794;9.784;2022-09-25T00:36:28;12.00;;;4.80;;
6255;SDS011;3161;48.794;9.784;2022-09-25T00:38:56;11.67;;;4.73;;
6255;SDS011;3161;48.794;9.784;2022-09-25T00:41:24;14.63;;;4.53;;
6255;SDS011;3161;48.794;9.784;2022-09-25T00:43:54;6.33;;;3.97;;
6255;SDS011;3161;48.794;9.784;2022-09-25T00:46:36;7.73;;;3.77;;
6255;SDS011;3161;48.794;9.784;2022-09-25T00:49:09;15.43;;;4.37;;
6255;SDS011;3161;48.794;9.784;2022-09-25T00:51:41;39.40;;;5.00;;
6255;SDS011;3161;48.794;9.784;2022-09-25T00:54:21;8.03;;;4.73;;
6255;SDS011;3161;48.794;9.784;2022-09-25T00:56:50;46.90;;;5.30;;
6255;SDS011;3161;48.794;9.784;2022-09-25T00:59:21;9.37;;;3.87;;
6255;SDS011;3161;48.794;9.784;2022-09-25T01:01:50;38.40;;;5.53;;
6255;SDS011;3161;48.794;9.784;2022-09-25T01:04:18;23.37;;;4.40;;
6255;SDS011;3161;48.794;9.784;2022-09-25T01:06:48;18.17;;;4.20;;
6255;SDS011;3161;48.794;9.784;2022-09-25T01:09:17;22.67;;;4.93;;
6255;SDS011;3161;48.794;9.784;2022-09-25T01:11:45;22.90;;;4.93;;
6255;SDS011;3161;48.794;9.784;2022-09-25T01:14:13;20.13;;;4.77;;
6255;SDS011;3161;48.794;9.784;2022-09-25T01:19:53;13.63;;;5.03;;
6255;SDS011;3161;48.794;9.784;2022-09-25T01:25:20;6.57;;;5.27;;
6255;SDS011;3161;48.794;9.784;2022-09-25T01:28:06;22.77;;;5.03;;
6255;SDS011;3161;48.794;9.784;2022-09-25T01:30:32;10.67;;;4.93;;
6255;SDS011;3161;48.794;9.784;2022-09-25T01:35:56;6.67;;;4.77;;
6255;SDS011;3161;48.794;9.784;2022-09-25T01:41:10;7.93;;;4.87;;
6255;SDS011;3161;48.794;9.784;2022-09-25T01:43:58;7.30;;;4.27;;
6255;SDS011;3161;48.794;9.784;2022-09-25T01:46:29;8.90;;;4.23;;
6255;SDS011;3161;48.794;9.784;2022-09-25T01:49:01;7.77;;;4.83;;
6255;SDS011;3161;48.794;9.784;2022-09-25T01:51:31;15.30;;;4.30;;
6255;SDS011;3161;48.794;9.784;2022-09-25T01:54:07;7.43;;;4.23;;
6255;SDS011;3161;48.794;9.784;2022-09-25T01:56:41;17.43;;;5.47;;
6255;SDS011;3161;48.794;9.784;2022-09-25T02:02:14;8.03;;;5.13;;
6255;SDS011;3161;48.794;9.784;2022-09-25T02:04:45;6.37;;;5.47;;
6255;SDS011;3161;48.794;9.784;2022-09-25T02:07:15;9.70;;;4.97;;
6255;SDS011;3161;48.794;9.784;2022-09-25T02:09:48;6.13;;;5.40;;
6255;SDS011;3161;48.794;9.784;2022-09-25T02:12:18;4.47;;;4.03;;
6255;SDS011;3161;48.794;9.784;2022-09-25T02:14:55;4.93;;;4.37;;
6255;SDS011;3161;48.794;9.784;2022-09-25T02:17:28;5.53;;;5.03;;
6255;SDS011;3161;48.794;9.784;2022-09-25T02:20:15;6.03;;;5.43;;
6255;SDS011;3161;48.794;9.784;2022-09-25T02:23:16;5.67;;;4.93;;
6255;SDS011;3161;48.794;9.784;2022-09-25T02:25:56;9.07;;;5.07;;
6255;SDS011;3161;48.794;9.784;2022-09-25T02:28:36;4.53;;;4.10;;
6255;SDS011;3161;48.794;9.784;2022-09-25T02:31:04;5.00;;;4.50;;
6255;SDS011;3161;48.794;9.784;2022-09-25T02:33:34;6.10;;;5.13;;
6255;SDS011;3161;48.794;9.784;2022-09-25T02:36:02;5.57;;;5.07;;
6255;SDS011;3161;48.794;9.784;2022-09-25T02:38:31;5.50;;;4.40;;
6255;SDS011;3161;48.794;9.784;2022-09-25T02:46:26;6.10;;;5.50;;
6255;SDS011;3161;48.794;9.784;2022-09-25T02:49:04;5.93;;;5.33;;
6255;SDS011;3161;48.794;9.784;2022-09-25T02:54:21;6.07;;;5.50;;
6255;SDS011;3161;48.794;9.784;2022-09-25T02:57:11;5.37;;;4.50;;
6255;SDS011;3161;48.794;9.784;2022-09-25T02:59:54;5.97;;;4.83;;
6255;SDS011;3161;48.794;9.784;2022-09-25T03:02:23;4.63;;;4.13;;
6255;SDS011;3161;48.794;9.784;2022-09-25T03:04:54;5.83;;;5.00;;
6255;SDS011;3161;48.794;9.784;2022-09-25T03:07:24;10.53;;;4.90;;
6255;SDS011;3161;48.794;9.784;2022-09-25T03:09:51;5.53;;;4.50;;
6255;SDS011;3161;48.794;9.784;2022-09-25T03:12:21;4.93;;;4.53;;
6255;SDS011;3161;48.794;9.784;2022-09-25T03:14:49;4.93;;;4.50;;
6255;SDS011;3161;48.794;9.784;2022-09-25T03:17:17;4.50;;;4.07;;
6255;SDS011;3161;48.794;9.784;2022-09-25T03:19:46;4.47;;;3.90;;
6255;SDS011;3161;48.794;9.784;2022-09-25T03:22:13;8.23;;;4.20;;
6255;SDS011;3161;48.794;9.784;2022-09-25T03:24:41;4.60;;;4.20;;
6255;SDS011;3161;48.794;9.784;2022-09-25T03:27:09;5.87;;;3.83;;
6255;SDS011;3161;48.794;9.784;2022-09-25T03:29:36;3.73;;;3.33;;
6255;SDS011;3161;48.794;9.784;2022-09-25T03:32:04;4.00;;;3.70;;
6255;SDS011;3161;48.794;9.784;2022-09-25T03:34:32;3.70;;;3.40;;
6255;SDS011;3161;48.794;9.784;2022-09-25T03:36:59;5.07;;;3.70;;
6255;SDS011;3161;48.794;9.784;2022-09-25T03:39:27;3.77;;;3.47;;
6255;SDS011;3161;48.794;9.784;2022-09-25T03:41:54;12.10;;;3.97;;
6255;SDS011;3161;48.794;9.784;2022-09-25T03:44:22;3.90;;;3.53;;
6255;SDS011;3161;48.794;9.784;2022-09-25T03:46:49;4.00;;;3.57;;
6255;SDS011;3161;48.794;9.784;2022-09-25T03:49:17;4.00;;;3.57;;
6255;SDS011;3161;48.794;9.784;2022-09-25T03:51:45;4.53;;;4.13;;
6255;SDS011;3161;48.794;9.784;2022-09-25T03:54:12;7.77;;;4.37;;
6255;SDS011;3161;48.794;9.784;2022-09-25T03:56:40;4.37;;;4.00;;
6255;SDS011;3161;48.794;9.784;2022-09-25T03:59:07;4.40;;;4.00;;
6255;SDS011;3161;48.794;9.784;2022-09-25T04:01:35;4.70;;;4.20;;
6255;SDS011;3161;48.794;9.784;2022-09-25T04:04:02;6.97;;;3.90;;
6255;SDS011;3161;48.794;9.784;2022-09-25T04:06:30;4.50;;;4.10;;
6255;SDS011;3161;48.794;9.784;2022-09-25T04:08:57;4.63;;;4.07;;
6255;SDS011;3161;48.794;9.784;2022-09-25T04:11:25;3.90;;;3.50;;
6255;SDS011;3161;48.794;9.784;2022-09-25T04:13:52;4.20;;;3.90;;
6255;SDS011;3161;48.794;9.784;2022-09-25T04:16:21;4.37;;;3.97;;
6255;SDS011;3161;48.794;9.784;2022-09-25T04:18:48;6.30;;;4.70;;
6255;SDS011;3161;48.794;9.784;2022-09-25T04:21:16;4.43;;;4.03;;
6255;SDS011;3161;48.794;9.784;2022-09-25T04:23:43;4.80;;;4.40;;
6255;SDS011;3161;48.794;9.784;2022-09-25T04:26:30;5.30;;;4.80;;
6255;SDS011;3161;48.794;9.784;2022-09-25T04:28:58;5.13;;;4.70;;
6255;SDS011;3161;48.794;9.784;2022-09-25T04:31:29;5.37;;;4.87;;
6255;SDS011;3161;48.794;9.784;2022-09-25T04:33:57;5.00;;;4.50;;
6255;SDS011;3161;48.794;9.784;2022-09-25T04:36:27;5.77;;;4.10;;
6255;SDS011;3161;48.794;9.784;2022-09-25T04:38:54;5.50;;;4.17;;
6255;SDS011;3161;48.794;9.784;2022-09-25T04:41:22;6.13;;;4.57;;
6255;SDS011;3161;48.794;9.784;2022-09-25T04:43:49;8.13;;;4.67;;
6255;SDS011;3161;48.794;9.784;2022-09-25T04:46:17;5.27;;;4.77;;
6255;SDS011;3161;48.794;9.784;2022-09-25T04:48:44;11.27;;;4.70;;
6255;SDS011;3161;48.794;9.784;2022-09-25T04:51:12;5.20;;;4.70;;
6255;SDS011;3161;48.794;9.784;2022-09-25T04:53:40;6.27;;;4.17;;
6255;SDS011;3161;48.794;9.784;2022-09-25T04:56:07;6.60;;;5.70;;
6255;SDS011;3161;48.794;9.784;2022-09-25T04:58:38;10.10;;;5.67;;
6255;SDS011;3161;48.794;9.784;2022-09-25T05:01:11;8.07;;;5.87;;
6255;SDS011;3161;48.794;9.784;2022-09-25T05:03:39;5.93;;;5.33;;
6255;SDS011;3161;48.794;9.784;2022-09-25T05:06:06;13.00;;;6.00;;
6255;SDS011;3161;48.794;9.784;2022-09-25T05:08:34;8.50;;;5.63;;
6255;SDS011;3161;48.794;9.784;2022-09-25T05:11:01;7.43;;;5.70;;
6255;SDS011;3161;48.794;9.784;2022-09-25T05:13:29;6.30;;;5.60;;
6255;SDS011;3161;48.794;9.784;2022-09-25T05:15:56;6.13;;;5.53;;
6255;SDS011;3161;48.794;9.784;2022-09-25T05:18:24;7.00;;;5.70;;
6255;SDS011;3161;48.794;9.784;2022-09-25T05:20:51;10.87;;;5.30;;
6255;SDS011;3161;48.794;9.784;2022-09-25T05:23:19;6.33;;;5.10;;
6255;SDS011;3161;48.794;9.784;2022-09-25T05:25:52;6.40;;;5.80;;
6255;SDS011;3161;48.794;9.784;2022-09-25T05:28:20;7.33;;;5.47;;
6255;SDS011;3161;48.794;9.784;2022-09-25T05:30:48;6.90;;;5.57;;
6255;SDS011;3161;48.794;9.784;2022-09-25T05:33:16;7.33;;;5.53;;
6255;SDS011;3161;48.794;9.784;2022-09-25T05:35:44;7.33;;;5.83;;
6255;SDS011;3161;48.794;9.784;2022-09-25T05:38:11;7.60;;;5.77;;
6255;SDS011;3161;48.794;9.784;2022-09-25T05:40:39;6.93;;;6.03;;
6255;SDS011;3161;48.794;9.784;2022-09-25T05:43:07;15.97;;;6.20;;
6255;SDS011;3161;48.794;9.784;2022-09-25T05:45:34;9.90;;;7.03;;
6255;SDS011;3161;48.794;9.784;2022-09-25T05:48:07;17.87;;;10.17;;
6255;SDS011;3161;48.794;9.784;2022-09-25T05:50:32;12.57;;;7.63;;
6255;SDS011;3161;48.794;9.784;2022-09-25T05:53:01;8.93;;;6.87;;
6255;SDS011;3161;48.794;9.784;2022-09-25T05:55:30;9.97;;;6.90;;
6255;SDS011;3161;48.794;9.784;2022-09-25T05:57:58;14.40;;;9.70;;
6255;SDS011;3161;48.794;9.784;2022-09-25T06:00:27;15.90;;;9.97;;
6255;SDS011;3161;48.794;9.784;2022-09-25T06:02:58;16.00;;;11.23;;
6255;SDS011;3161;48.794;9.784;2022-09-25T06:05:26;10.27;;;7.77;;
6255;SDS011;3161;48.794;9.784;2022-09-25T06:07:53;11.50;;;8.40;;
6255;SDS011;3161;48.794;9.784;2022-09-25T06:10:21;17.03;;;9.87;;
6255;SDS011;3161;48.794;9.784;2022-09-25T06:12:51;12.00;;;8.03;;
6255;SDS011;3161;48.794;9.784;2022-09-25T06:15:24;9.60;;;7.00;;
6255;SDS011;3161;48.794;9.784;2022-09-25T06:17:53;12.97;;;9.17;;
6255;SDS011;3161;48.794;9.784;2022-09-25T06:20:21;12.63;;;8.73;;
6255;SDS011;3161;48.794;9.784;2022-09-25T06:22:52;12.13;;;8.10;;
6255;SDS011;3161;48.794;9.784;2022-09-25T06:25:21;13.57;;;9.47;;
6255;SDS011;3161;48.794;9.784;2022-09-25T06:27:53;14.00;;;9.53;;
6255;SDS011;3161;48.794;9.784;2022-09-25T06:30:21;15.70;;;11.10;;
6255;SDS011;3161;48.794;9.784;2022-09-25T06:32:57;15.63;;;9.13;;
6255;SDS011;3161;48.794;9.784;2022-09-25T06:35:34;14.20;;;8.90;;
6255;SDS011;3161;48.794;9.784;2022-09-25T06:38:03;12.03;;;9.47;;
6255;SDS011;3161;48.794;9.784;2022-09-25T06:40:31;11.70;;;8.53;;
6255;SDS011;3161;48.794;9.784;2022-09-25T06:42:59;9.93;;;7.90;;
6255;SDS011;3161;48.794;9.784;2022-09-25T06:45:29;10.90;;;8.67;;
6255;SDS011;3161;48.794;9.784;2022-09-25T06:53:06;22.50;;;12.27;;
6255;SDS011;3161;48.794;9.784;2022-09-25T06:55:35;19.00;;;11.80;;
6255;SDS011;3161;48.794;9.784;2022-09-25T06:58:04;12.50;;;9.40;;
6255;SDS011;3161;48.794;9.784;2022-09-25T07:00:33;16.00;;;10.60;;
6255;SDS011;3161;48.794;9.784;2022-09-25T07:03:01;19.07;;;10.43;;
6255;SDS011;3161;48.794;9.784;2022-09-25T07:05:47;19.63;;;12.40;;
6255;SDS011;3161;48.794;9.784;2022-09-25T07:08:15;17.70;;;12.00;;
6255;SDS011;3161;48.794;9.784;2022-09-25T07:10:53;13.57;;;9.80;;
6255;SDS011;3161;48.794;9.784;2022-09-25T07:13:17;14.33;;;9.47;;
6255;SDS011;3161;48.794;9.784;2022-09-25T07:15:53;13.57;;;9.17;;
6255;SDS011;3161;48.794;9.784;2022-09-25T07:18:25;17.50;;;10.93;;
6255;SDS011;3161;48.794;9.784;2022-09-25T07:21:01;21.20;;;12.23;;
6255;SDS011;3161;48.794;9.784;2022-09-25T07:23:30;17.23;;;10.90;;
6255;SDS011;3161;48.794;9.784;2022-09-25T07:26:08;17.33;;;9.87;;
6255;SDS011;3161;48.794;9.784;2022-09-25T07:28:41;10.67;;;7.70;;
6255;SDS011;3161;48.794;9.784;2022-09-25T07:31:14;12.57;;;7.63;;
6255;SDS011;3161;48.794;9.784;2022-09-25T07:33:46;9.10;;;7.40;;
6255;SDS011;3161;48.794;9.784;2022-09-25T07:36:14;10.40;;;8.43;;
6255;SDS011;3161;48.794;9.784;2022-09-25T07:38:43;12.67;;;9.17;;
6255;SDS011;3161;48.794;9.784;2022-09-25T07:41:15;12.93;;;8.73;;
6255;SDS011;3161;48.794;9.784;2022-09-25T07:43:44;10.97;;;8.50;;
6255;SDS011;3161;48.794;9.784;2022-09-25T07:46:12;9.93;;;7.40;;
6255;SDS011;3161;48.794;9.784;2022-09-25T07:48:39;8.67;;;7.13;;
6255;SDS011;3161;48.794;9.784;2022-09-25T07:51:08;7.97;;;6.40;;
6255;SDS011;3161;48.794;9.784;2022-09-25T07:53:37;9.63;;;6.37;;
6255;SDS011;3161;48.794;9.784;2022-09-25T07:56:06;9.53;;;7.47;;
6255;SDS011;3161;48.794;9.784;2022-09-25T07:58:34;10.70;;;7.23;;
6255;SDS011;3161;48.794;9.784;2022-09-25T08:01:03;8.90;;;7.10;;
6255;SDS011;3161;48.794;9.784;2022-09-25T08:03:32;11.20;;;7.13;;
6255;SDS011;3161;48.794;9.784;2022-09-25T08:06:07;14.77;;;6.97;;
6255;SDS011;3161;48.794;9.784;2022-09-25T08:08:35;14.13;;;9.27;;
6255;SDS011;3161;48.794;9.784;2022-09-25T08:11:07;7.67;;;6.73;;
6255;SDS011;3161;48.794;9.784;2022-09-25T08:13:39;9.40;;;6.50;;
6255;SDS011;3161;48.794;9.784;2022-09-25T08:16:08;12.13;;;7.63;;
6255;SDS011;3161;48.794;9.784;2022-09-25T08:18:41;9.20;;;6.87;;
6255;SDS011;3161;48.794;9.784;2022-09-25T08:21:11;10.10;;;7.60;;
6255;SDS011;3161;48.794;9.784;2022-09-25T08:23:41;10.33;;;7.33;;
6255;SDS011;3161;48.794;9.784;2022-09-25T08:26:09;10.40;;;6.40;;
6255;SDS011;3161;48.794;9.784;2022-09-25T08:28:36;8.37;;;7.10;;
6255;SDS011;3161;48.794;9.784;2022-09-25T08:31:04;22.60;;;16.97;;
6255;SDS011;3161;48.794;9.784;2022-09-25T08:33:33;8.97;;;6.83;;
6255;SDS011;3161;48.794;9.784;2022-09-25T08:36:02;9.30;;;7.23;;
6255;SDS011;3161;48.794;9.784;2022-09-25T08:38:31;10.93;;;6.30;;
6255;SDS011;3161;48.794;9.784;2022-09-25T08:41:00;8.80;;;6.43;;
6255;SDS011;3161;48.794;9.784;2022-09-25T08:43:29;8.20;;;6.37;;
6255;SDS011;3161;48.794;9.784;2022-09-25T08:45:59;6.43;;;5.57;;
6255;SDS011;3161;48.794;9.784;2022-09-25T08:48:54;8.63;;;5.73;;
6255;SDS011;3161;48.794;9.784;2022-09-25T08:51:42;6.47;;;5.30;;
6255;SDS011;3161;48.794;9.784;2022-09-25T08:54:25;5.97;;;5.37;;
6255;SDS011;3161;48.794;9.784;2022-09-25T08:56:50;8.20;;;6.27;;
6255;SDS011;3161;48.794;9.784;2022-09-25T08:59:39;7.37;;;5.90;;
6255;SDS011;3161;48.794;9.784;2022-09-25T09:04:50;6.83;;;5.80;;
6255;SDS011;3161;48.794;9.784;2022-09-25T09:10:06;5.50;;;4.93;;
6255;SDS011;3161;48.794;9.784;2022-09-25T09:12:42;7.67;;;4.93;;
6255;SDS011;3161;48.794;9.784;2022-09-25T09:15:16;4.10;;;3.70;;
6255;SDS011;3161;48.794;9.784;2022-09-25T09:17:45;5.43;;;4.63;;
6255;SDS011;3161;48.794;9.784;2022-09-25T09:20:14;4.40;;;4.00;;
6255;SDS011;3161;48.794;9.784;2022-09-25T09:22:47;4.40;;;4.00;;
6255;SDS011;3161;48.794;9.784;2022-09-25T09:25:24;5.73;;;4.50;;
6255;SDS011;3161;48.794;9.784;2022-09-25T09:28:01;6.37;;;5.07;;
6255;SDS011;3161;48.794;9.784;2022-09-25T09:33:13;5.73;;;5.13;;
6255;SDS011;3161;48.794;9.784;2022-09-25T09:44:01;6.17;;;5.00;;
6255;SDS011;3161;48.794;9.784;2022-09-25T09:49:43;6.93;;;5.03;;
6255;SDS011;3161;48.794;9.784;2022-09-25T09:52:20;5.93;;;4.60;;
6255;SDS011;3161;48.794;9.784;2022-09-25T09:55:00;7.53;;;4.67;;
6255;SDS011;3161;48.794;9.784;2022-09-25T09:57:29;6.10;;;4.60;;
6255;SDS011;3161;48.794;9.784;2022-09-25T10:02:40;6.50;;;5.50;;
6255;SDS011;3161;48.794;9.784;2022-09-25T10:08:13;9.87;;;6.13;;
6255;SDS011;3161;48.794;9.784;2022-09-25T10:10:42;8.43;;;6.27;;
6255;SDS011;3161;48.794;9.784;2022-09-25T10:13:23;4.83;;;4.27;;
6255;SDS011;3161;48.794;9.784;2022-09-25T10:16:05;4.57;;;4.07;;
6255;SDS011;3161;48.794;9.784;2022-09-25T10:18:40;4.63;;;3.97;;
6255;SDS011;3161;48.794;9.784;2022-09-25T10:21:22;7.10;;;4.73;;
6255;SDS011;3161;48.794;9.784;2022-09-25T10:23:52;4.73;;;3.93;;
6255;SDS011;3161;48.794;9.784;2022-09-25T10:29:26;5.17;;;4.10;;
6255;SDS011;3161;48.794;9.784;2022-09-25T10:31:36;5.53;;;4.73;;
6255;SDS011;3161;48.794;9.784;2022-09-25T10:34:07;4.37;;;3.73;;
6255;SDS011;3161;48.794;9.784;2022-09-25T10:36:43;4.50;;;4.10;;
6255;SDS011;3161;48.794;9.784;2022-09-25T10:39:26;5.23;;;4.73;;
6255;SDS011;3161;48.794;9.784;2022-09-25T10:42:04;4.70;;;4.10;;
6255;SDS011;3161;48.794;9.784;2022-09-25T10:44:35;4.67;;;4.23;;
6255;SDS011;3161;48.794;9.784;2022-09-25T10:52:46;5.43;;;4.17;;
6255;SDS011;3161;48.794;9.784;2022-09-25T10:55:22;5.27;;;4.60;;
6255;SDS011;3161;48.794;9.784;2022-09-25T10:58:00;5.47;;;4.43;;
6255;SDS011;3161;48.794;9.784;2022-09-25T11:00:28;4.93;;;4.43;;
6255;SDS011;3161;48.794;9.784;2022-09-25T11:02:58;5.60;;;4.60;;
6255;SDS011;3161;48.794;9.784;2022-09-25T11:05:31;8.33;;;4.33;;
6255;SDS011;3161;48.794;9.784;2022-09-25T11:08:04;6.03;;;4.47;;
6255;SDS011;3161;48.794;9.784;2022-09-25T11:10:34;5.97;;;4.13;;
6255;SDS011;3161;48.794;9.784;2022-09-25T11:13:08;5.90;;;4.60;;
6255;SDS011;3161;48.794;9.784;2022-09-25T11:15:37;5.43;;;4.80;;
6255;SDS011;3161;48.794;9.784;2022-09-25T11:18:05;7.03;;;4.57;;
6255;SDS011;3161;48.794;9.784;2022-09-25T11:20:35;6.60;;;4.87;;
6255;SDS011;3161;48.794;9.784;2022-09-25T11:25:58;5.33;;;4.83;;
6255;SDS011;3161;48.794;9.784;2022-09-25T11:31:10;5.17;;;4.67;;
6255;SDS011;3161;48.794;9.784;2022-09-25T11:33:54;5.03;;;4.53;;
6255;SDS011;3161;48.794;9.784;2022-09-25T11:36:34;9.27;;;5.30;;
6255;SDS011;3161;48.794;9.784;2022-09-25T11:39:04;4.77;;;4.37;;
6255;SDS011;3161;48.794;9.784;2022-09-25T11:41:56;4.57;;;4.00;;
6255;SDS011;3161;48.794;9.784;2022-09-25T11:44:42;5.93;;;4.50;;
6255;SDS011;3161;48.794;9.784;2022-09-25T11:47:23;5.93;;;5.10;;
6255;SDS011;3161;48.794;9.784;2022-09-25T11:50:01;8.53;;;5.63;;
6255;SDS011;3161;48.794;9.784;2022-09-25T11:52:35;5.93;;;4.77;;
6255;SDS011;3161;48.794;9.784;2022-09-25T11:55:26;4.50;;;4.10;;
6255;SDS011;3161;48.794;9.784;2022-09-25T11:57:51;6.30;;;4.17;;
6255;SDS011;3161;48.794;9.784;2022-09-25T12:09:00;11.10;;;5.70;;
6255;SDS011;3161;48.794;9.784;2022-09-25T12:17:17;8.80;;;5.20;;
6255;SDS011;3161;48.794;9.784;2022-09-25T12:19:53;6.27;;;4.83;;
6255;SDS011;3161;48.794;9.784;2022-09-25T12:36:13;12.00;;;5.63;;
6255;SDS011;3161;48.794;9.784;2022-09-25T12:38:43;8.73;;;5.47;;
6255;SDS011;3161;48.794;9.784;2022-09-25T12:47:14;9.23;;;5.73;;
6255;SDS011;3161;48.794;9.784;2022-09-25T12:49:46;7.93;;;5.87;;
6255;SDS011;3161;48.794;9.784;2022-09-25T12:52:23;7.57;;;5.70;;
6255;SDS011;3161;48.794;9.784;2022-09-25T12:54:57;8.30;;;5.83;;
6255;SDS011;3161;48.794;9.784;2022-09-25T12:57:51;6.13;;;5.37;;
6255;SDS011;3161;48.794;9.784;2022-09-25T13:02:52;6.20;;;5.07;;
6255;SDS011;3161;48.794;9.784;2022-09-25T13:05:28;6.17;;;5.40;;
6255;SDS011;3161;48.794;9.784;2022-09-25T13:08:11;6.93;;;5.70;;
6255;SDS011;3161;48.794;9.784;2022-09-25T13:10:45;5.43;;;4.90;;
6255;SDS011;3161;48.794;9.784;2022-09-25T13:13:22;9.53;;;5.70;;
6255;SDS011;3161;48.794;9.784;2022-09-25T13:15:47;8.13;;;4.97;;
6255;SDS011;3161;48.794;9.784;2022-09-25T13:18:19;6.77;;;5.30;;
6255;SDS011;3161;48.794;9.784;2022-09-25T13:20:52;7.83;;;6.47;;
6255;SDS011;3161;48.794;9.784;2022-09-25T13:26:07;10.40;;;6.07;;
6255;SDS011;3161;48.794;9.784;2022-09-25T13:31:04;6.17;;;5.30;;
6255;SDS011;3161;48.794;9.784;2022-09-25T13:33:40;11.13;;;6.83;;
6255;SDS011;3161;48.794;9.784;2022-09-25T13:36:18;11.17;;;6.20;;
6255;SDS011;3161;48.794;9.784;2022-09-25T13:38:51;7.07;;;5.50;;
6255;SDS011;3161;48.794;9.784;2022-09-25T13:41:55;6.57;;;5.70;;
6255;SDS011;3161;48.794;9.784;2022-09-25T13:44:37;9.93;;;5.57;;
6255;SDS011;3161;48.794;9.784;2022-09-25T14:00:25;7.20;;;5.03;;
6255;SDS011;3161;48.794;9.784;2022-09-25T14:02:55;6.37;;;4.80;;
6255;SDS011;3161;48.794;9.784;2022-09-25T14:05:25;5.13;;;4.63;;
6255;SDS011;3161;48.794;9.784;2022-09-25T14:07:59;11.00;;;5.03;;
6255;SDS011;3161;48.794;9.784;2022-09-25T14:10:27;6.50;;;4.73;;
6255;SDS011;3161;48.794;9.784;2022-09-25T14:12:55;7.40;;;5.40;;
6255;SDS011;3161;48.794;9.784;2022-09-25T14:15:27;7.53;;;5.50;;
6255;SDS011;3161;48.794;9.784;2022-09-25T14:18:01;7.00;;;4.77;;
6255;SDS011;3161;48.794;9.784;2022-09-25T14:20:32;7.37;;;4.97;;
6255;SDS011;3161;48.794;9.784;2022-09-25T14:25:57;7.73;;;6.10;;
6255;SDS011;3161;48.794;9.784;2022-09-25T14:28:27;7.67;;;5.83;;
6255;SDS011;3161;48.794;9.784;2022-09-25T14:36:38;8.07;;;5.90;;
6255;SDS011;3161;48.794;9.784;2022-09-25T14:39:11;6.10;;;5.40;;
6255;SDS011;3161;48.794;9.784;2022-09-25T14:42:01;7.27;;;6.10;;
6255;SDS011;3161;48.794;9.784;2022-09-25T14:44:49;8.97;;;6.20;;
6255;SDS011;3161;48.794;9.784;2022-09-25T14:47:22;8.53;;;6.03;;
6255;SDS011;3161;48.794;9.784;2022-09-25T14:49:55;7.40;;;6.17;;
6255;SDS011;3161;48.794;9.784;2022-09-25T14:52:26;10.20;;;6.10;;
6255;SDS011;3161;48.794;9.784;2022-09-25T14:54:56;9.80;;;6.27;;
6255;SDS011;3161;48.794;9.784;2022-09-25T14:57:32;9.00;;;5.87;;
6255;SDS011;3161;48.794;9.784;2022-09-25T15:00:04;7.60;;;6.37;;
6255;SDS011;3161;48.794;9.784;2022-09-25T15:02:38;8.53;;;6.13;;
6255;SDS011;3161;48.794;9.784;2022-09-25T15:05:16;8.93;;;6.20;;
6255;SDS011;3161;48.794;9.784;2022-09-25T15:07:45;7.97;;;5.77;;
6255;SDS011;3161;48.794;9.784;2022-09-25T15:10:46;7.57;;;5.80;;
6255;SDS011;3161;48.794;9.784;2022-09-25T15:13:15;10.77;;;5.70;;
6255;SDS011;3161;48.794;9.784;2022-09-25T15:15:45;6.63;;;5.60;;
6255;SDS011;3161;48.794;9.784;2022-09-25T15:18:35;5.50;;;5.00;;
6255;SDS011;3161;48.794;9.784;2022-09-25T15:21:12;6.73;;;4.93;;
6255;SDS011;3161;48.794;9.784;2022-09-25T15:23:49;7.87;;;4.67;;
6255;SDS011;3161;48.794;9.784;2022-09-25T15:26:18;6.70;;;4.80;;
6255;SDS011;3161;48.794;9.784;2022-09-25T15:28:46;5.83;;;4.77;;
6255;SDS011;3161;48.794;9.784;2022-09-25T15:31:16;6.67;;;4.27;;
6255;SDS011;3161;48.794;9.784;2022-09-25T15:33:44;7.57;;;4.50;;
6255;SDS011;3161;48.794;9.784;2022-09-25T15:36:15;4.83;;;4.37;;
6255;SDS011;3161;48.794;9.784;2022-09-25T15:38:55;12.73;;;4.53;;
6255;SDS011;3161;48.794;9.784;2022-09-25T15:41:27;6.03;;;4.57;;
6255;SDS011;3161;48.794;9.784;2022-09-25T15:44:11;4.40;;;4.00;;
6255;SDS011;3161;48.794;9.784;2022-09-25T15:46:47;5.43;;;4.33;;
6255;SDS011;3161;48.794;9.784;2022-09-25T15:49:18;12.67;;;4.80;;
6255;SDS011;3161;48.794;9.784;2022-09-25T15:51:49;6.77;;;4.67;;
6255;SDS011;3161;48.794;9.784;2022-09-25T15:54:31;4.90;;;3.97;;
6255;SDS011;3161;48.794;9.784;2022-09-25T15:57:02;4.67;;;4.10;;
6255;SDS011;3161;48.794;9.784;2022-09-25T16:02:07;4.20;;;3.80;;
6255;SDS011;3161;48.794;9.784;2022-09-25T16:04:52;4.63;;;3.60;;
6255;SDS011;3161;48.794;9.784;2022-09-25T16:10:01;2.83;;;2.60;;
6255;SDS011;3161;48.794;9.784;2022-09-25T16:17:52;1.90;;;1.80;;
6255;SDS011;3161;48.794;9.784;2022-09-25T16:22:59;2.80;;;2.23;;
6255;SDS011;3161;48.794;9.784;2022-09-25T16:30:48;2.60;;;2.40;;
6255;SDS011;3161;48.794;9.784;2022-09-25T16:33:20;2.27;;;2.07;;
6255;SDS011;3161;48.794;9.784;2022-09-25T16:35:51;3.87;;;2.97;;
6255;SDS011;3161;48.794;9.784;2022-09-25T16:38:26;2.40;;;2.20;;
6255;SDS011;3161;48.794;9.784;2022-09-25T16:41:02;2.57;;;2.37;;
6255;SDS011;3161;48.794;9.784;2022-09-25T16:43:32;3.23;;;2.87;;
6255;SDS011;3161;48.794;9.784;2022-09-25T16:46:01;2.77;;;2.40;;
6255;SDS011;3161;48.794;9.784;2022-09-25T16:48:34;2.77;;;2.57;;
6255;SDS011;3161;48.794;9.784;2022-09-25T16:51:04;3.23;;;2.60;;
6255;SDS011;3161;48.794;9.784;2022-09-25T16:53:34;2.50;;;2.30;;
6255;SDS011;3161;48.794;9.784;2022-09-25T16:56:03;4.17;;;2.70;;
6255;SDS011;3161;48.794;9.784;2022-09-25T16:58:31;5.90;;;2.63;;
6255;SDS011;3161;48.794;9.784;2022-09-25T17:01:00;2.23;;;2.13;;
6255;SDS011;3161;48.794;9.784;2022-09-25T17:03:29;5.23;;;3.23;;
6255;SDS011;3161;48.794;9.784;2022-09-25T17:05:59;5.97;;;2.57;;
6255;SDS011;3161;48.794;9.784;2022-09-25T17:08:27;2.87;;;2.50;;
6255;SDS011;3161;48.794;9.784;2022-09-25T17:10:54;2.60;;;2.40;;
6255;SDS011;3161;48.794;9.784;2022-09-25T17:13:24;4.63;;;3.10;;
6255;SDS011;3161;48.794;9.784;2022-09-25T17:15:52;5.13;;;2.80;;
6255;SDS011;3161;48.794;9.784;2022-09-25T17:18:22;3.67;;;3.37;;
6255;SDS011;3161;48.794;9.784;2022-09-25T17:20:50;8.40;;;5.70;;
6255;SDS011;3161;48.794;9.784;2022-09-25T17:23:20;8.80;;;6.30;;
6255;SDS011;3161;48.794;9.784;2022-09-25T17:25:51;10.23;;;5.97;;
6255;SDS011;3161;48.794;9.784;2022-09-25T17:28:20;6.17;;;3.87;;
6255;SDS011;3161;48.794;9.784;2022-09-25T17:30:47;10.80;;;5.83;;
6255;SDS011;3161;48.794;9.784;2022-09-25T17:33:16;10.33;;;7.23;;
6255;SDS011;3161;48.794;9.784;2022-09-25T17:38:27;20.43;;;10.83;;
6255;SDS011;3161;48.794;9.784;2022-09-25T17:40:57;47.97;;;28.77;;
6255;SDS011;3161;48.794;9.784;2022-09-25T17:43:26;107.07;;;53.03;;
6255;SDS011;3161;48.794;9.784;2022-09-25T17:45:54;35.87;;;20.47;;
6255;SDS011;3161;48.794;9.784;2022-09-25T17:48:28;42.00;;;24.40;;
6255;SDS011;3161;48.794;9.784;2022-09-25T17:50:55;14.80;;;9.30;;
6255;SDS011;3161;48.794;9.784;2022-09-25T17:53:26;11.57;;;6.80;;
6255;SDS011;3161;48.794;9.784;2022-09-25T17:55:59;8.83;;;6.23;;
6255;SDS011;3161;48.794;9.784;2022-09-25T17:58:28;6.97;;;5.57;;
6255;SDS011;3161;48.794;9.784;2022-09-25T18:00:58;19.70;;;14.00;;
6255;SDS011;3161;48.794;9.784;2022-09-25T18:03:27;20.20;;;13.10;;
6255;SDS011;3161;48.794;9.784;2022-09-25T18:05:55;26.03;;;14.07;;
6255;SDS011;3161;48.794;9.784;2022-09-25T18:08:23;13.43;;;8.20;;
6255;SDS011;3161;48.794;9.784;2022-09-25T18:10:52;12.23;;;7.43;;